createdAt,value
2022-10-29T00:00:14.776Z,11.90
2022-10-29T00:02:46.200Z,13.60
2022-10-29T00:05:15.908Z,15.17
2022-10-29T00:07:45.537Z,13.03
2022-10-29T00:10:15.024Z,13.63
2022-10-29T00:12:44.342Z,12.80
2022-10-29T00:15:14.458Z,12.60
2022-10-29T00:17:45.483Z,15.10
2022-10-29T00:20:15.217Z,13.13
2022-10-29T00:22:44.706Z,13.70
2022-10-29T00:25:14.212Z,12.93
2022-10-29T00:27:43.728Z,13.67
2022-10-29T00:30:15.080Z,13.53
2022-10-29T00:32:46.203Z,14.50
2022-10-29T00:35:15.928Z,14.20
2022-10-29T00:37:45.522Z,13.80
2022-10-29T00:40:15.444Z,15.50
2022-10-29T00:42:45.051Z,14.20
2022-10-29T00:45:21.529Z,13.30
2022-10-29T00:47:56.209Z,14.13
2022-10-29T00:50:26.879Z,12.17
2022-10-29T00:52:56.892Z,13.83
2022-10-29T00:55:26.421Z,12.57
2022-10-29T00:57:58.526Z,14.60
2022-10-29T01:00:28.372Z,13.43
2022-10-29T01:03:00.045Z,13.97
2022-10-29T01:05:31.879Z,14.57
2022-10-29T01:08:01.393Z,13.77
2022-10-29T01:10:39.894Z,14.93
2022-10-29T01:13:28.364Z,13.10
2022-10-29T01:16:04.983Z,14.00
2022-10-29T01:18:42.947Z,13.23
2022-10-29T01:21:46.647Z,13.30
2022-10-29T01:24:54.438Z,12.53
2022-10-29T01:27:45.655Z,11.70
2022-10-29T01:30:22.724Z,13.07
2022-10-29T01:33:09.436Z,11.70
2022-10-29T01:35:49.389Z,12.90
2022-10-29T01:38:27.398Z,12.53
2022-10-29T01:41:05.612Z,12.70
2022-10-29T01:43:40.522Z,12.10
2022-10-29T01:46:15.053Z,12.07
2022-10-29T01:48:50.284Z,12.30
2022-10-29T01:51:24.222Z,12.70
2022-10-29T01:53:54.635Z,12.97
2022-10-29T01:56:24.135Z,14.70
2022-10-29T01:58:59.292Z,12.97
2022-10-29T02:01:44.872Z,12.43
2022-10-29T02:04:43.860Z,12.80
2022-10-29T02:07:22.470Z,12.53
2022-10-29T02:09:59.862Z,11.77
2022-10-29T02:12:33.050Z,14.43
2022-10-29T02:15:08.710Z,15.70
2022-10-29T02:17:39.245Z,12.10
2022-10-29T02:20:13.126Z,12.37
2022-10-29T02:22:42.744Z,12.47
2022-10-29T02:25:13.032Z,13.20
2022-10-29T02:27:42.688Z,13.07
2022-10-29T02:30:12.794Z,14.33
2022-10-29T02:32:42.294Z,13.20
2022-10-29T02:35:13.652Z,12.93
2022-10-29T02:37:43.251Z,13.13
2022-10-29T02:40:14.180Z,12.73
2022-10-29T02:42:43.785Z,13.33
2022-10-29T02:45:13.625Z,13.10
2022-10-29T02:47:43.015Z,13.53
2022-10-29T02:50:13.951Z,13.20
2022-10-29T02:52:43.246Z,11.97
2022-10-29T02:55:12.653Z,12.00
2022-10-29T02:57:44.832Z,13.40
2022-10-29T03:00:15.751Z,12.73
2022-10-29T03:02:45.303Z,13.93
2022-10-29T03:05:16.408Z,14.20
2022-10-29T03:07:45.917Z,17.40
2022-10-29T03:10:15.510Z,20.57
2022-10-29T03:12:44.921Z,14.40
2022-10-29T03:15:14.535Z,15.23
2022-10-29T03:17:43.937Z,14.83
2022-10-29T03:20:15.983Z,14.00
2022-10-29T03:22:45.398Z,13.27
2022-10-29T03:25:14.884Z,14.07
2022-10-29T03:27:44.908Z,14.47
2022-10-29T03:30:16.787Z,14.43
2022-10-29T03:32:48.022Z,14.57
2022-10-29T03:35:19.368Z,13.10
2022-10-29T03:37:52.468Z,13.33
2022-10-29T03:40:22.274Z,12.93
2022-10-29T03:42:51.679Z,13.80
2022-10-29T03:45:21.281Z,15.97
2022-10-29T03:47:50.779Z,13.37
2022-10-29T03:50:21.810Z,13.23
2022-10-29T03:52:51.330Z,15.00
2022-10-29T03:55:20.648Z,14.40
2022-10-29T03:57:50.341Z,15.03
2022-10-29T04:00:20.448Z,17.87
2022-10-29T04:02:50.022Z,16.63
2022-10-29T04:05:20.992Z,15.27
2022-10-29T04:07:50.505Z,14.97
2022-10-29T04:10:20.109Z,15.07
2022-10-29T04:12:49.721Z,14.27
2022-10-29T04:15:19.737Z,14.30
2022-10-29T04:17:53.163Z,14.57
2022-10-29T04:20:45.413Z,15.80
2022-10-29T04:26:48.147Z,15.87
2022-10-29T04:28:29.012Z,14.67
2022-10-29T04:28:54.749Z,14.97
2022-10-29T04:31:24.228Z,16.90
2022-10-29T04:33:56.111Z,16.30
2022-10-29T04:36:27.246Z,14.83
2022-10-29T04:38:56.740Z,14.90
2022-10-29T04:41:26.260Z,15.07
2022-10-29T04:43:55.648Z,17.57
2022-10-29T04:46:25.000Z,18.13
2022-10-29T04:48:55.312Z,18.80
2022-10-29T04:51:27.547Z,16.80
2022-10-29T04:53:57.054Z,15.70
2022-10-29T04:56:26.783Z,19.07
2022-10-29T04:58:56.274Z,17.27
2022-10-29T05:01:26.123Z,18.17
2022-10-29T05:03:58.977Z,18.10
2022-10-29T05:06:31.125Z,23.00
2022-10-29T05:09:00.629Z,20.30
2022-10-29T05:11:30.133Z,21.17
2022-10-29T05:13:59.541Z,18.93
2022-10-29T05:16:29.065Z,23.67
2022-10-29T05:18:58.538Z,22.43
2022-10-29T05:21:27.947Z,23.43
2022-10-29T05:23:59.116Z,21.40
2022-10-29T05:26:28.596Z,24.73
2022-10-29T05:28:58.112Z,27.20
2022-10-29T05:31:27.510Z,25.07
2022-10-29T05:33:56.804Z,24.90
2022-10-29T05:36:26.414Z,23.13
2022-10-29T05:38:55.808Z,30.73
2022-10-29T05:41:27.169Z,20.60
2022-10-29T05:43:56.681Z,26.33
2022-10-29T05:46:26.282Z,23.50
2022-10-29T05:48:55.678Z,23.43
2022-10-29T05:51:25.394Z,20.50
2022-10-29T05:53:54.999Z,21.10
2022-10-29T05:56:26.145Z,22.70
2022-10-29T05:58:55.655Z,19.47
2022-10-29T06:01:25.180Z,18.70
2022-10-29T06:03:54.547Z,18.00
2022-10-29T06:06:23.786Z,20.40
2022-10-29T06:08:53.353Z,19.97
2022-10-29T06:11:22.642Z,22.77
2022-10-29T06:13:57.599Z,18.47
2022-10-29T06:16:27.095Z,17.43
2022-10-29T06:18:57.028Z,18.33
2022-10-29T06:21:27.623Z,16.10
2022-10-29T06:23:57.146Z,16.67
2022-10-29T06:26:26.847Z,18.57
2022-10-29T06:28:58.413Z,16.37
2022-10-29T06:31:28.224Z,17.60
2022-10-29T06:33:58.327Z,17.60
2022-10-29T06:36:28.050Z,16.00
2022-10-29T06:38:57.758Z,17.37
2022-10-29T06:41:27.549Z,15.60
2022-10-29T06:43:58.894Z,13.80
2022-10-29T06:46:28.318Z,15.33
2022-10-29T06:48:58.035Z,11.37
2022-10-29T06:51:27.948Z,12.90
2022-10-29T06:53:57.750Z,12.73
2022-10-29T06:56:27.266Z,12.43
2022-10-29T06:58:58.297Z,10.97
2022-10-29T07:01:31.835Z,12.10
2022-10-29T07:04:02.051Z,8.27
2022-10-29T07:06:34.889Z,13.83
2022-10-29T07:09:04.305Z,13.30
2022-10-29T07:11:33.700Z,8.50
2022-10-29T07:14:06.487Z,8.20
2022-10-29T07:16:35.987Z,8.43
2022-10-29T07:19:06.510Z,10.50
2022-10-29T07:21:35.932Z,10.73
2022-10-29T07:24:05.827Z,10.40
2022-10-29T07:26:35.348Z,7.57
2022-10-29T07:29:06.483Z,7.30
2022-10-29T07:31:36.506Z,11.77
2022-10-29T07:34:05.999Z,9.03
2022-10-29T07:36:35.705Z,10.13
2022-10-29T07:39:05.425Z,8.20
2022-10-29T07:41:35.441Z,10.73
2022-10-29T07:44:13.840Z,10.80
2022-10-29T07:46:43.346Z,8.77
2022-10-29T07:49:13.481Z,7.73
2022-10-29T07:58:07.964Z,8.83
2022-10-29T08:00:40.752Z,12.20
2022-10-29T08:03:12.747Z,8.20
2022-10-29T08:05:43.022Z,8.37
2022-10-29T08:08:13.387Z,9.33
2022-10-29T08:10:43.440Z,10.53
2022-10-29T08:13:13.124Z,6.87
2022-10-29T08:15:47.750Z,7.03
2022-10-29T08:18:19.082Z,8.10
2022-10-29T08:20:49.204Z,8.30
2022-10-29T08:23:18.523Z,13.03
2022-10-29T08:25:48.223Z,13.80
2022-10-29T08:28:19.040Z,12.80
2022-10-29T08:30:53.582Z,7.97
2022-10-29T08:33:23.902Z,6.43
2022-10-29T08:35:53.303Z,10.43
2022-10-29T08:38:23.897Z,11.80
2022-10-29T08:41:09.123Z,13.03
2022-10-29T08:44:08.115Z,9.30
2022-10-29T08:46:46.318Z,9.97
2022-10-29T08:49:20.222Z,24.47
2022-10-29T08:51:56.384Z,8.53
2022-10-29T08:54:31.355Z,9.27
2022-10-29T08:57:06.136Z,10.17
2022-10-29T08:59:39.743Z,11.90
2022-10-29T09:02:17.134Z,5.93
2022-10-29T09:04:46.537Z,7.13
2022-10-29T09:07:34.984Z,5.87
2022-10-29T09:10:12.582Z,6.03
2022-10-29T09:13:15.163Z,5.50
2022-10-29T09:16:20.600Z,7.20
2022-10-29T09:19:16.745Z,11.30
2022-10-29T09:21:57.624Z,6.40
2022-10-29T09:24:36.527Z,7.87
2022-10-29T09:27:13.710Z,9.17
2022-10-29T09:29:54.685Z,4.70
2022-10-29T09:32:28.600Z,4.77
2022-10-29T09:35:03.743Z,7.00
2022-10-29T09:37:42.550Z,10.43
2022-10-29T09:40:20.209Z,5.03
2022-10-29T09:42:50.682Z,9.80
2022-10-29T09:45:23.674Z,4.80
2022-10-29T09:48:03.103Z,9.07
2022-10-29T09:50:42.748Z,9.57
2022-10-29T09:53:13.082Z,4.13
2022-10-29T09:55:45.762Z,4.57
2022-10-29T09:58:20.427Z,5.23
2022-10-29T10:00:50.402Z,5.47
2022-10-29T10:03:25.448Z,11.93
2022-10-29T10:06:05.486Z,5.20
2022-10-29T10:08:36.523Z,8.73
2022-10-29T10:11:08.886Z,9.03
2022-10-29T10:13:40.342Z,7.20
2022-10-29T10:16:10.249Z,7.57
2022-10-29T10:21:28.637Z,6.00
2022-10-29T10:23:59.359Z,7.13
2022-10-29T10:26:35.813Z,6.57
2022-10-29T10:29:15.271Z,5.33
2022-10-29T10:31:45.899Z,5.80
2022-10-29T10:34:21.652Z,8.27
2022-10-29T10:36:56.473Z,6.40
2022-10-29T10:39:29.692Z,5.47
2022-10-29T10:42:01.927Z,8.80
2022-10-29T10:44:31.736Z,6.53
2022-10-29T10:47:08.931Z,5.20
2022-10-29T10:49:40.789Z,5.67
2022-10-29T10:52:19.414Z,4.00
2022-10-29T10:54:58.856Z,5.17
2022-10-29T10:57:31.725Z,5.00
2022-10-29T11:00:06.976Z,5.77
2022-10-29T11:02:45.993Z,6.67
2022-10-29T11:05:20.716Z,6.53
2022-10-29T11:08:00.845Z,4.80
2022-10-29T11:10:36.639Z,6.47
2022-10-29T11:13:13.510Z,5.60
2022-10-29T11:15:53.163Z,4.50
2022-10-29T11:18:30.273Z,4.50
2022-10-29T11:21:09.577Z,7.07
2022-10-29T11:23:51.053Z,6.87
2022-10-29T11:26:27.735Z,4.00
2022-10-29T11:29:02.862Z,5.35
2022-10-29T11:31:44.679Z,7.37
2022-10-29T11:34:23.166Z,4.30
2022-10-29T11:37:06.194Z,5.20
2022-10-29T11:39:50.548Z,5.13
2022-10-29T11:42:20.165Z,5.20
2022-10-29T11:44:49.860Z,3.90
2022-10-29T11:47:33.094Z,4.70
2022-10-29T11:50:20.609Z,5.57
2022-10-29T11:52:56.466Z,6.17
2022-10-29T11:55:37.872Z,5.93
2022-10-29T11:58:18.529Z,4.40
2022-10-29T12:00:58.680Z,3.40
2022-10-29T12:03:47.430Z,4.50
2022-10-29T12:06:23.995Z,8.63
2022-10-29T12:09:07.755Z,5.20
2022-10-29T12:11:45.862Z,5.03
2022-10-29T12:14:26.822Z,5.45
2022-10-29T12:17:06.270Z,5.15
2022-10-29T12:19:46.617Z,6.00
2022-10-29T12:22:30.249Z,3.75
2022-10-29T12:25:25.667Z,4.65
2022-10-29T12:28:08.078Z,3.53
2022-10-29T12:30:43.621Z,7.13
2022-10-29T12:33:20.706Z,4.50
2022-10-29T12:35:57.351Z,6.90
2022-10-29T12:38:38.710Z,5.10
2022-10-29T12:41:15.439Z,9.20
2022-10-29T12:43:47.721Z,5.73
2022-10-29T12:46:26.948Z,7.13
2022-10-29T12:49:07.593Z,5.63
2022-10-29T12:51:44.793Z,7.50
2022-10-29T12:54:27.717Z,9.33
2022-10-29T12:56:58.257Z,5.30
2022-10-29T12:59:37.985Z,4.43
2022-10-29T13:02:30.951Z,6.37
2022-10-29T13:05:21.740Z,5.77
2022-10-29T13:08:30.484Z,7.73
2022-10-29T13:11:00.390Z,7.97
2022-10-29T13:13:59.287Z,5.57
2022-10-29T13:16:34.832Z,5.63
2022-10-29T13:19:31.143Z,5.43
2022-10-29T13:22:06.398Z,8.37
2022-10-29T13:24:35.897Z,6.67
2022-10-29T13:27:23.633Z,7.47
2022-10-29T13:30:15.300Z,8.30
2022-10-29T13:32:46.608Z,14.40
2022-10-29T13:35:41.517Z,7.43
2022-10-29T13:38:16.628Z,12.47
2022-10-29T13:41:12.562Z,7.70
2022-10-29T13:43:44.623Z,7.53
2022-10-29T13:46:39.077Z,8.70
2022-10-29T13:49:18.236Z,10.07
2022-10-29T13:52:01.260Z,8.77
2022-10-29T13:54:44.080Z,8.03
2022-10-29T13:57:23.515Z,8.20
2022-10-29T13:59:57.942Z,16.43
2022-10-29T14:02:46.745Z,34.63
2022-10-29T14:05:22.442Z,12.03
2022-10-29T14:08:03.334Z,15.63
2022-10-29T14:10:37.343Z,15.03
2022-10-29T14:13:23.542Z,8.97
2022-10-29T14:16:13.317Z,7.10
2022-10-29T14:18:44.349Z,9.10
2022-10-29T14:21:19.770Z,11.40
2022-10-29T14:24:02.928Z,10.60
2022-10-29T14:26:34.674Z,8.27
2022-10-29T14:29:17.278Z,15.50
2022-10-29T14:31:46.984Z,11.00
2022-10-29T14:34:26.733Z,8.93
2022-10-29T14:37:01.057Z,9.07
2022-10-29T14:39:48.476Z,14.43
2022-10-29T14:42:33.042Z,9.83
2022-10-29T14:45:06.573Z,11.60
2022-10-29T14:47:38.399Z,8.90
2022-10-29T14:50:17.527Z,12.10
2022-10-29T14:52:53.975Z,8.63
2022-10-29T14:55:27.183Z,9.20
2022-10-29T14:58:03.753Z,10.17
2022-10-29T15:00:37.471Z,10.10
2022-10-29T15:03:08.925Z,9.40
2022-10-29T15:05:39.749Z,9.37
2022-10-29T15:08:19.507Z,8.90
2022-10-29T15:10:51.964Z,9.10
2022-10-29T15:13:32.415Z,10.00
2022-10-29T15:16:04.288Z,13.63
2022-10-29T15:18:35.654Z,8.90
2022-10-29T15:21:06.462Z,11.87
2022-10-29T15:23:43.969Z,9.37
2022-10-29T15:26:21.162Z,10.60
2022-10-29T15:28:53.425Z,14.23
2022-10-29T15:31:28.349Z,11.63
2022-10-29T15:34:00.925Z,8.53
2022-10-29T15:36:46.201Z,9.60
2022-10-29T15:39:27.378Z,10.23
2022-10-29T15:42:00.161Z,9.40
2022-10-29T15:44:40.616Z,10.20
2022-10-29T15:47:30.999Z,11.27
2022-10-29T15:50:00.465Z,10.90
2022-10-29T15:52:34.327Z,12.10
2022-10-29T15:55:06.687Z,12.00
2022-10-29T15:57:36.827Z,12.10
2022-10-29T16:00:08.993Z,8.93
2022-10-29T16:02:38.742Z,11.63
2022-10-29T16:05:09.479Z,15.53
2022-10-29T16:07:40.479Z,14.33
2022-10-29T16:10:20.321Z,13.50
2022-10-29T16:12:50.237Z,13.37
2022-10-29T16:15:21.704Z,18.13
2022-10-29T16:17:51.184Z,12.97
2022-10-29T16:20:22.223Z,15.27
2022-10-29T16:22:52.003Z,38.43
2022-10-29T16:25:30.036Z,21.73
2022-10-29T16:27:59.699Z,11.97
2022-10-29T16:30:29.490Z,13.27
2022-10-29T16:32:59.794Z,13.13
2022-10-29T16:35:30.913Z,10.63
2022-10-29T16:38:00.632Z,14.23
2022-10-29T16:40:32.406Z,16.37
2022-10-29T16:43:01.792Z,14.47
2022-10-29T16:45:33.131Z,13.40
2022-10-29T16:48:03.158Z,16.27
2022-10-29T16:50:34.312Z,11.87
2022-10-29T16:53:06.802Z,17.20
2022-10-29T16:55:39.859Z,16.27
2022-10-29T16:58:10.807Z,18.03
2022-10-29T17:00:40.423Z,15.73
2022-10-29T17:03:12.600Z,19.00
2022-10-29T17:05:43.935Z,16.13
2022-10-29T17:08:13.964Z,18.53
2022-10-29T17:10:45.401Z,25.43
2022-10-29T17:13:15.516Z,18.50
2022-10-29T17:15:45.234Z,15.03
2022-10-29T17:18:14.725Z,19.73
2022-10-29T17:20:44.142Z,21.53
2022-10-29T17:23:14.662Z,14.30
2022-10-29T17:25:46.212Z,12.90
2022-10-29T17:28:15.604Z,17.43
2022-10-29T17:30:45.113Z,14.60
2022-10-29T17:33:15.228Z,15.10
2022-10-29T17:35:45.443Z,18.90
2022-10-29T17:38:15.172Z,15.70
2022-10-29T17:40:51.945Z,12.00
2022-10-29T17:43:21.451Z,19.10
2022-10-29T17:45:52.985Z,14.83
2022-10-29T17:48:25.045Z,18.87
2022-10-29T17:50:57.942Z,19.20
2022-10-29T17:53:28.861Z,20.33
2022-10-29T17:56:06.419Z,21.80
2022-10-29T17:58:38.930Z,29.83
2022-10-29T18:01:12.109Z,29.87
2022-10-29T18:03:43.376Z,22.97
2022-10-29T18:06:14.932Z,19.80
2022-10-29T18:08:45.945Z,18.53
2022-10-29T18:11:22.136Z,23.90
2022-10-29T18:13:54.812Z,19.80
2022-10-29T18:16:32.007Z,20.27
2022-10-29T18:19:05.605Z,29.67
2022-10-29T18:21:35.846Z,22.40
2022-10-29T18:24:05.633Z,23.53
2022-10-29T18:26:38.210Z,23.23
2022-10-29T18:29:09.459Z,24.00
2022-10-29T18:31:43.283Z,20.00
2022-10-29T18:34:15.420Z,20.10
2022-10-29T18:36:48.113Z,21.30
2022-10-29T18:39:17.523Z,19.70
2022-10-29T18:41:49.372Z,24.93
2022-10-29T18:44:19.302Z,25.00
2022-10-29T18:46:48.699Z,18.67
2022-10-29T18:49:18.195Z,20.53
2022-10-29T18:51:48.026Z,20.43
2022-10-29T18:54:21.441Z,19.13
2022-10-29T18:56:57.063Z,18.00
2022-10-29T18:59:36.473Z,18.67
2022-10-29T19:02:08.025Z,18.20
2022-10-29T19:04:39.298Z,23.43
2022-10-29T19:07:10.329Z,17.13
2022-10-29T19:09:45.381Z,22.17
2022-10-29T19:12:17.843Z,18.97
2022-10-29T19:14:51.754Z,18.03
2022-10-29T19:17:21.981Z,16.80
2022-10-29T19:19:52.084Z,16.43
2022-10-29T19:22:21.912Z,18.93
2022-10-29T19:25:54.074Z,25.60
2022-10-29T19:28:26.136Z,17.07
2022-10-29T19:31:03.009Z,16.63
2022-10-29T19:37:10.634Z,17.13
2022-10-29T19:39:44.343Z,18.03
2022-10-29T19:42:16.910Z,20.33
2022-10-29T19:44:59.728Z,19.30
2022-10-29T19:47:33.835Z,16.57
2022-10-29T19:50:05.903Z,16.53
2022-10-29T19:53:04.402Z,18.90
2022-10-29T19:55:41.471Z,17.63
2022-10-29T19:58:21.008Z,18.73
2022-10-29T20:00:56.064Z,22.03
2022-10-29T20:03:26.688Z,15.10
2022-10-29T20:05:58.738Z,15.53
2022-10-29T20:08:28.549Z,16.23
2022-10-29T20:10:58.466Z,15.73
2022-10-29T20:13:29.008Z,14.70
2022-10-29T20:16:00.449Z,17.63
2022-10-29T20:18:29.969Z,17.00
2022-10-29T20:21:00.251Z,16.10
2022-10-29T20:23:30.805Z,16.67
2022-10-29T20:26:00.841Z,18.27
2022-10-29T20:28:31.346Z,19.83
2022-10-29T20:31:33.005Z,22.30
2022-10-29T20:34:05.478Z,16.40
2022-10-29T20:36:36.129Z,20.63
2022-10-29T20:39:10.681Z,20.10
2022-10-29T20:41:41.865Z,18.40
2022-10-29T20:44:11.497Z,16.50
2022-10-29T20:46:44.014Z,17.07
2022-10-29T20:49:13.977Z,17.93
2022-10-29T20:51:43.603Z,15.63
2022-10-29T20:54:15.323Z,15.53
2022-10-29T20:56:44.806Z,14.77
2022-10-29T20:59:14.470Z,16.43
2022-10-29T21:01:46.354Z,16.23
2022-10-29T21:04:16.275Z,16.97
2022-10-29T21:06:45.957Z,14.77
2022-10-29T21:09:15.470Z,15.23
2022-10-29T21:11:45.589Z,16.17
2022-10-29T21:14:15.381Z,13.73
2022-10-29T21:16:46.430Z,16.10
2022-10-29T21:19:15.933Z,14.60
2022-10-29T21:21:45.845Z,14.77
2022-10-29T21:24:15.650Z,13.77
2022-10-29T21:26:45.165Z,15.10
2022-10-29T21:29:14.871Z,13.80
2022-10-29T21:31:45.799Z,16.00
2022-10-29T21:34:15.330Z,16.70
2022-10-29T21:36:44.705Z,12.57
2022-10-29T21:39:14.226Z,13.80
2022-10-29T21:41:47.605Z,13.87
2022-10-29T21:44:17.327Z,17.07
2022-10-29T21:46:48.780Z,15.67
2022-10-29T21:49:18.479Z,17.80
2022-10-29T21:51:48.694Z,17.50
2022-10-29T21:54:19.364Z,17.23
2022-10-29T21:56:50.521Z,15.60
2022-10-29T21:59:20.189Z,14.77
2022-10-29T22:01:51.702Z,17.50
2022-10-29T22:04:21.133Z,12.67
2022-10-29T22:06:50.653Z,16.67
2022-10-29T22:09:19.948Z,13.63
2022-10-29T22:11:49.355Z,14.83
2022-10-29T22:14:18.756Z,13.63
2022-10-29T22:16:48.158Z,15.10
2022-10-29T22:19:19.211Z,13.97
2022-10-29T22:21:48.699Z,14.63
2022-10-29T22:24:18.619Z,16.40
2022-10-29T22:26:48.014Z,14.83
2022-10-29T22:29:17.622Z,13.13
2022-10-29T22:31:47.758Z,13.17
2022-10-29T22:34:18.977Z,17.03
2022-10-29T22:36:48.595Z,13.80
2022-10-29T22:39:18.199Z,13.30
2022-10-29T22:41:47.797Z,13.63
2022-10-29T22:44:17.322Z,13.40
2022-10-29T22:46:47.140Z,14.00
2022-10-29T22:49:18.269Z,14.20
2022-10-29T22:51:47.790Z,13.30
2022-10-29T22:54:17.383Z,13.80
2022-10-29T22:56:47.094Z,12.70
2022-10-29T22:59:16.496Z,12.80
2022-10-29T23:01:46.231Z,13.27
2022-10-29T23:04:16.128Z,13.70
2022-10-29T23:06:48.274Z,13.30
2022-10-29T23:09:17.784Z,17.43
2022-10-29T23:11:47.290Z,12.90
2022-10-29T23:14:16.688Z,27.90
2022-10-29T23:16:46.192Z,14.23
2022-10-29T23:19:16.226Z,14.63
2022-10-29T23:21:47.150Z,17.43
2022-10-29T23:24:16.664Z,16.73
2022-10-29T23:26:45.974Z,14.50
2022-10-29T23:29:15.670Z,15.17
2022-10-29T23:31:45.064Z,17.57
2022-10-29T23:34:14.882Z,15.03
2022-10-29T23:36:44.534Z,13.30
2022-10-29T23:39:15.932Z,17.80
2022-10-29T23:41:45.336Z,20.17
2022-10-29T23:44:14.849Z,16.30
2022-10-29T23:46:44.349Z,17.97
2022-10-29T23:49:13.956Z,18.80
2022-10-29T23:51:43.572Z,14.60
2022-10-29T23:54:14.722Z,15.70
2022-10-29T23:56:44.431Z,16.87
2022-10-29T23:59:13.926Z,16.10
